sensor_id;sensor_type;location;lat;lon;timestamp;P1;durP1;ratioP1;P2;durP2;ratioP2
70953;SDS011;58618;47.490;8.736;2022-11-20T00:00:54;2.37;;;1.13;;
70953;SDS011;58618;47.490;8.736;2022-11-20T00:03:43;3.38;;;1.40;;
70953;SDS011;58618;47.490;8.736;2022-11-20T00:06:30;2.33;;;1.30;;
70953;SDS011;58618;47.490;8.736;2022-11-20T00:09:18;2.45;;;1.77;;
70953;SDS011;58618;47.490;8.736;2022-11-20T00:12:06;1.98;;;1.20;;
70953;SDS011;58618;47.490;8.736;2022-11-20T00:14:53;2.43;;;1.40;;
70953;SDS011;58618;47.490;8.736;2022-11-20T00:17:41;2.20;;;1.35;;
70953;SDS011;58618;47.490;8.736;2022-11-20T00:20:29;2.17;;;1.27;;
70953;SDS011;58618;47.490;8.736;2022-11-20T00:23:17;4.63;;;1.70;;
70953;SDS011;58618;47.490;8.736;2022-11-20T00:26:05;1.70;;;1.20;;
70953;SDS011;58618;47.490;8.736;2022-11-20T00:28:55;2.57;;;1.17;;
70953;SDS011;58618;47.490;8.736;2022-11-20T00:31:44;2.00;;;1.40;;
70953;SDS011;58618;47.490;8.736;2022-11-20T00:34:31;2.15;;;1.48;;
70953;SDS011;58618;47.490;8.736;2022-11-20T00:37:20;1.25;;;1.10;;
70953;SDS011;58618;47.490;8.736;2022-11-20T00:40:07;4.18;;;1.38;;
70953;SDS011;58618;47.490;8.736;2022-11-20T00:42:55;2.30;;;1.10;;
70953;SDS011;58618;47.490;8.736;2022-11-20T00:45:43;2.30;;;1.42;;
70953;SDS011;58618;47.490;8.736;2022-11-20T00:48:30;2.42;;;1.65;;
70953;SDS011;58618;47.490;8.736;2022-11-20T00:51:19;2.53;;;1.40;;
70953;SDS011;58618;47.490;8.736;2022-11-20T00:54:10;3.05;;;1.67;;
70953;SDS011;58618;47.490;8.736;2022-11-20T00:56:57;1.47;;;1.20;;
70953;SDS011;58618;47.490;8.736;2022-11-20T00:59:44;2.90;;;1.27;;
70953;SDS011;58618;47.490;8.736;2022-11-20T01:02:32;4.38;;;1.77;;
70953;SDS011;58618;47.490;8.736;2022-11-20T01:05:19;3.42;;;1.75;;
70953;SDS011;58618;47.490;8.736;2022-11-20T01:08:06;2.13;;;1.45;;
70953;SDS011;58618;47.490;8.736;2022-11-20T01:10:59;2.77;;;1.70;;
70953;SDS011;58618;47.490;8.736;2022-11-20T01:13:47;2.60;;;1.30;;
70953;SDS011;58618;47.490;8.736;2022-11-20T01:16:36;2.10;;;1.63;;
70953;SDS011;58618;47.490;8.736;2022-11-20T01:19:25;2.25;;;1.13;;
70953;SDS011;58618;47.490;8.736;2022-11-20T01:22:12;2.15;;;1.40;;
70953;SDS011;58618;47.490;8.736;2022-11-20T01:24:59;1.80;;;1.43;;
70953;SDS011;58618;47.490;8.736;2022-11-20T01:27:48;2.67;;;1.52;;
70953;SDS011;58618;47.490;8.736;2022-11-20T01:30:35;1.95;;;1.27;;
70953;SDS011;58618;47.490;8.736;2022-11-20T01:33:23;1.45;;;1.02;;
70953;SDS011;58618;47.490;8.736;2022-11-20T01:36:11;2.58;;;1.30;;
70953;SDS011;58618;47.490;8.736;2022-11-20T01:38:59;1.87;;;1.10;;
70953;SDS011;58618;47.490;8.736;2022-11-20T01:41:49;2.97;;;1.30;;
70953;SDS011;58618;47.490;8.736;2022-11-20T01:44:57;2.65;;;1.35;;
70953;SDS011;58618;47.490;8.736;2022-11-20T01:47:45;1.23;;;0.93;;
70953;SDS011;58618;47.490;8.736;2022-11-20T01:50:35;1.80;;;1.30;;
70953;SDS011;58618;47.490;8.736;2022-11-20T01:53:23;2.50;;;1.47;;
70953;SDS011;58618;47.490;8.736;2022-11-20T01:56:15;1.75;;;1.20;;
70953;SDS011;58618;47.490;8.736;2022-11-20T01:59:04;2.10;;;1.50;;
70953;SDS011;58618;47.490;8.736;2022-11-20T02:01:55;3.78;;;1.35;;
70953;SDS011;58618;47.490;8.736;2022-11-20T02:04:42;1.38;;;1.20;;
70953;SDS011;58618;47.490;8.736;2022-11-20T02:07:31;1.77;;;1.20;;
70953;SDS011;58618;47.490;8.736;2022-11-20T02:10:18;1.35;;;0.95;;
70953;SDS011;58618;47.490;8.736;2022-11-20T02:13:05;1.75;;;1.20;;
70953;SDS011;58618;47.490;8.736;2022-11-20T02:16:15;3.92;;;1.05;;
70953;SDS011;58618;47.490;8.736;2022-11-20T02:19:07;1.85;;;1.20;;
70953;SDS011;58618;47.490;8.736;2022-11-20T02:22:00;1.63;;;1.10;;
70953;SDS011;58618;47.490;8.736;2022-11-20T02:24:53;1.20;;;0.70;;
70953;SDS011;58618;47.490;8.736;2022-11-20T02:27:41;2.22;;;1.20;;
70953;SDS011;58618;47.490;8.736;2022-11-20T02:30:28;1.80;;;1.42;;
70953;SDS011;58618;47.490;8.736;2022-11-20T02:33:16;2.00;;;1.10;;
70953;SDS011;58618;47.490;8.736;2022-11-20T02:36:03;1.73;;;1.10;;
70953;SDS011;58618;47.490;8.736;2022-11-20T02:38:51;5.32;;;1.02;;
70953;SDS011;58618;47.490;8.736;2022-11-20T02:41:40;1.65;;;1.00;;
70953;SDS011;58618;47.490;8.736;2022-11-20T02:44:27;1.33;;;1.10;;
70953;SDS011;58618;47.490;8.736;2022-11-20T02:47:15;1.75;;;0.93;;
70953;SDS011;58618;47.490;8.736;2022-11-20T02:50:02;2.17;;;1.27;;
70953;SDS011;58618;47.490;8.736;2022-11-20T02:52:51;1.45;;;0.80;;
70953;SDS011;58618;47.490;8.736;2022-11-20T02:55:38;1.25;;;0.95;;
70953;SDS011;58618;47.490;8.736;2022-11-20T02:58:27;2.03;;;1.05;;
70953;SDS011;58618;47.490;8.736;2022-11-20T03:01:14;1.55;;;1.02;;
70953;SDS011;58618;47.490;8.736;2022-11-20T03:04:02;1.47;;;1.00;;
70953;SDS011;58618;47.490;8.736;2022-11-20T03:06:49;1.40;;;0.90;;
70953;SDS011;58618;47.490;8.736;2022-11-20T03:09:37;1.08;;;0.80;;
70953;SDS011;58618;47.490;8.736;2022-11-20T03:12:24;0.75;;;0.70;;
70953;SDS011;58618;47.490;8.736;2022-11-20T03:15:13;0.95;;;0.70;;
70953;SDS011;58618;47.490;8.736;2022-11-20T03:18:00;2.00;;;1.10;;
70953;SDS011;58618;47.490;8.736;2022-11-20T03:20:48;1.52;;;0.90;;
70953;SDS011;58618;47.490;8.736;2022-11-20T03:23:35;1.27;;;0.80;;
70953;SDS011;58618;47.490;8.736;2022-11-20T03:26:25;0.90;;;0.80;;
70953;SDS011;58618;47.490;8.736;2022-11-20T03:29:13;1.92;;;0.98;;
70953;SDS011;58618;47.490;8.736;2022-11-20T03:32:02;0.73;;;0.67;;
70953;SDS011;58618;47.490;8.736;2022-11-20T03:34:49;1.13;;;0.77;;
70953;SDS011;58618;47.490;8.736;2022-11-20T03:37:37;2.05;;;1.35;;
70953;SDS011;58618;47.490;8.736;2022-11-20T03:40:24;0.85;;;0.70;;
70953;SDS011;58618;47.490;8.736;2022-11-20T03:43:12;1.45;;;0.90;;
70953;SDS011;58618;47.490;8.736;2022-11-20T03:45:59;0.90;;;0.70;;
70953;SDS011;58618;47.490;8.736;2022-11-20T03:48:48;1.00;;;0.70;;
70953;SDS011;58618;47.490;8.736;2022-11-20T03:51:36;0.90;;;0.60;;
70953;SDS011;58618;47.490;8.736;2022-11-20T03:54:23;0.90;;;0.80;;
70953;SDS011;58618;47.490;8.736;2022-11-20T03:57:10;0.80;;;0.70;;
70953;SDS011;58618;47.490;8.736;2022-11-20T03:59:58;1.13;;;0.80;;
70953;SDS011;58618;47.490;8.736;2022-11-20T04:02:45;0.93;;;0.80;;
70953;SDS011;58618;47.490;8.736;2022-11-20T04:05:34;0.90;;;0.70;;
70953;SDS011;58618;47.490;8.736;2022-11-20T04:08:21;0.88;;;0.70;;
70953;SDS011;58618;47.490;8.736;2022-11-20T04:11:09;1.25;;;0.90;;
70953;SDS011;58618;47.490;8.736;2022-11-20T04:13:58;0.70;;;0.50;;
70953;SDS011;58618;47.490;8.736;2022-11-20T04:16:46;1.02;;;0.70;;
70953;SDS011;58618;47.490;8.736;2022-11-20T04:19:33;0.85;;;0.75;;
70953;SDS011;58618;47.490;8.736;2022-11-20T04:22:22;2.33;;;1.35;;
70953;SDS011;58618;47.490;8.736;2022-11-20T04:25:09;1.80;;;1.00;;
70953;SDS011;58618;47.490;8.736;2022-11-20T04:27:57;1.23;;;0.80;;
70953;SDS011;58618;47.490;8.736;2022-11-20T04:30:44;1.10;;;1.00;;
70953;SDS011;58618;47.490;8.736;2022-11-20T04:33:32;1.10;;;0.90;;
70953;SDS011;58618;47.490;8.736;2022-11-20T04:36:20;1.25;;;0.70;;
70953;SDS011;58618;47.490;8.736;2022-11-20T04:39:13;0.60;;;0.57;;
70953;SDS011;58618;47.490;8.736;2022-11-20T04:42:01;0.80;;;0.70;;
70953;SDS011;58618;47.490;8.736;2022-11-20T04:45:07;0.82;;;0.60;;
70953;SDS011;58618;47.490;8.736;2022-11-20T04:47:54;1.00;;;0.70;;
70953;SDS011;58618;47.490;8.736;2022-11-20T04:50:42;1.17;;;0.90;;
70953;SDS011;58618;47.490;8.736;2022-11-20T04:53:29;1.20;;;1.00;;
70953;SDS011;58618;47.490;8.736;2022-11-20T04:56:18;0.60;;;0.60;;
70953;SDS011;58618;47.490;8.736;2022-11-20T04:59:05;0.82;;;0.77;;
70953;SDS011;58618;47.490;8.736;2022-11-20T05:01:53;1.05;;;0.80;;
70953;SDS011;58618;47.490;8.736;2022-11-20T05:04:40;1.58;;;0.90;;
70953;SDS011;58618;47.490;8.736;2022-11-20T05:07:27;0.85;;;0.70;;
70953;SDS011;58618;47.490;8.736;2022-11-20T05:10:15;0.90;;;0.73;;
70953;SDS011;58618;47.490;8.736;2022-11-20T05:13:03;1.10;;;0.70;;
70953;SDS011;58618;47.490;8.736;2022-11-20T05:15:51;2.42;;;0.98;;
70953;SDS011;58618;47.490;8.736;2022-11-20T05:18:39;0.75;;;0.63;;
70953;SDS011;58618;47.490;8.736;2022-11-20T05:21:29;1.58;;;0.77;;
70953;SDS011;58618;47.490;8.736;2022-11-20T05:24:17;1.83;;;1.30;;
70953;SDS011;58618;47.490;8.736;2022-11-20T05:27:04;1.20;;;0.85;;
70953;SDS011;58618;47.490;8.736;2022-11-20T05:29:53;0.85;;;0.80;;
70953;SDS011;58618;47.490;8.736;2022-11-20T05:32:40;0.50;;;0.50;;
70953;SDS011;58618;47.490;8.736;2022-11-20T05:35:27;0.68;;;0.63;;
70953;SDS011;58618;47.490;8.736;2022-11-20T05:38:15;0.80;;;0.60;;
70953;SDS011;58618;47.490;8.736;2022-11-20T05:41:03;0.90;;;0.75;;
70953;SDS011;58618;47.490;8.736;2022-11-20T05:43:51;0.95;;;0.80;;
70953;SDS011;58618;47.490;8.736;2022-11-20T05:46:40;1.50;;;0.82;;
70953;SDS011;58618;47.490;8.736;2022-11-20T05:49:27;1.63;;;0.90;;
70953;SDS011;58618;47.490;8.736;2022-11-20T05:52:14;1.37;;;1.00;;
70953;SDS011;58618;47.490;8.736;2022-11-20T05:55:02;1.52;;;0.90;;
70953;SDS011;58618;47.490;8.736;2022-11-20T05:57:49;1.10;;;0.80;;
70953;SDS011;58618;47.490;8.736;2022-11-20T06:00:36;0.95;;;0.88;;
70953;SDS011;58618;47.490;8.736;2022-11-20T06:03:25;1.60;;;0.85;;
70953;SDS011;58618;47.490;8.736;2022-11-20T06:06:12;8.30;;;0.87;;
70953;SDS011;58618;47.490;8.736;2022-11-20T06:09:01;1.70;;;1.10;;
70953;SDS011;58618;47.490;8.736;2022-11-20T06:11:48;1.23;;;1.00;;
70953;SDS011;58618;47.490;8.736;2022-11-20T06:14:35;1.25;;;1.05;;
70953;SDS011;58618;47.490;8.736;2022-11-20T06:17:23;1.20;;;1.08;;
70953;SDS011;58618;47.490;8.736;2022-11-20T06:20:12;1.47;;;0.80;;
70953;SDS011;58618;47.490;8.736;2022-11-20T06:22:59;1.20;;;1.10;;
70953;SDS011;58618;47.490;8.736;2022-11-20T06:25:47;1.48;;;1.00;;
70953;SDS011;58618;47.490;8.736;2022-11-20T06:28:34;1.10;;;0.90;;
70953;SDS011;58618;47.490;8.736;2022-11-20T06:31:22;1.38;;;1.27;;
70953;SDS011;58618;47.490;8.736;2022-11-20T06:34:11;1.00;;;0.90;;
70953;SDS011;58618;47.490;8.736;2022-11-20T06:37:00;1.23;;;1.00;;
70953;SDS011;58618;47.490;8.736;2022-11-20T06:39:48;0.70;;;0.70;;
70953;SDS011;58618;47.490;8.736;2022-11-20T06:42:35;1.00;;;0.80;;
70953;SDS011;58618;47.490;8.736;2022-11-20T06:45:23;1.00;;;0.82;;
70953;SDS011;58618;47.490;8.736;2022-11-20T06:48:10;1.55;;;1.08;;
70953;SDS011;58618;47.490;8.736;2022-11-20T06:50:57;1.30;;;1.05;;
70953;SDS011;58618;47.490;8.736;2022-11-20T06:53:46;2.37;;;1.17;;
70953;SDS011;58618;47.490;8.736;2022-11-20T06:56:34;1.50;;;1.05;;
70953;SDS011;58618;47.490;8.736;2022-11-20T06:59:21;1.40;;;0.90;;
70953;SDS011;58618;47.490;8.736;2022-11-20T07:02:09;2.42;;;1.42;;
70953;SDS011;58618;47.490;8.736;2022-11-20T07:04:57;2.28;;;1.25;;
70953;SDS011;58618;47.490;8.736;2022-11-20T07:07:44;1.30;;;0.90;;
70953;SDS011;58618;47.490;8.736;2022-11-20T07:10:33;1.60;;;1.10;;
70953;SDS011;58618;47.490;8.736;2022-11-20T07:13:20;2.88;;;1.08;;
70953;SDS011;58618;47.490;8.736;2022-11-20T07:16:08;1.38;;;0.85;;
70953;SDS011;58618;47.490;8.736;2022-11-20T07:18:55;1.20;;;0.90;;
70953;SDS011;58618;47.490;8.736;2022-11-20T07:21:43;1.43;;;1.00;;
70953;SDS011;58618;47.490;8.736;2022-11-20T07:24:30;1.77;;;1.25;;
70953;SDS011;58618;47.490;8.736;2022-11-20T07:27:19;1.60;;;1.10;;
70953;SDS011;58618;47.490;8.736;2022-11-20T07:30:06;1.70;;;1.38;;
70953;SDS011;58618;47.490;8.736;2022-11-20T07:32:54;1.42;;;1.10;;
70953;SDS011;58618;47.490;8.736;2022-11-20T07:35:42;1.33;;;1.10;;
70953;SDS011;58618;47.490;8.736;2022-11-20T07:38:30;1.73;;;1.08;;
70953;SDS011;58618;47.490;8.736;2022-11-20T07:41:18;3.35;;;1.20;;
70953;SDS011;58618;47.490;8.736;2022-11-20T07:44:06;1.27;;;0.98;;
70953;SDS011;58618;47.490;8.736;2022-11-20T07:46:54;2.38;;;1.13;;
70953;SDS011;58618;47.490;8.736;2022-11-20T07:49:41;0.93;;;0.87;;
70953;SDS011;58618;47.490;8.736;2022-11-20T07:52:28;1.27;;;1.00;;
70953;SDS011;58618;47.490;8.736;2022-11-20T07:55:16;1.52;;;1.15;;
70953;SDS011;58618;47.490;8.736;2022-11-20T07:58:03;1.23;;;0.85;;
70953;SDS011;58618;47.490;8.736;2022-11-20T08:00:52;1.60;;;1.10;;
70953;SDS011;58618;47.490;8.736;2022-11-20T08:03:39;1.60;;;1.20;;
70953;SDS011;58618;47.490;8.736;2022-11-20T08:06:26;1.58;;;1.00;;
70953;SDS011;58618;47.490;8.736;2022-11-20T08:09:14;1.83;;;1.38;;
70953;SDS011;58618;47.490;8.736;2022-11-20T08:12:01;1.50;;;1.02;;
70953;SDS011;58618;47.490;8.736;2022-11-20T08:15:06;1.48;;;1.02;;
70953;SDS011;58618;47.490;8.736;2022-11-20T08:18:00;8.50;;;1.13;;
70953;SDS011;58618;47.490;8.736;2022-11-20T08:20:48;1.02;;;0.80;;
70953;SDS011;58618;47.490;8.736;2022-11-20T08:23:36;2.95;;;1.45;;
70953;SDS011;58618;47.490;8.736;2022-11-20T08:26:23;1.70;;;0.90;;
70953;SDS011;58618;47.490;8.736;2022-11-20T08:29:11;2.97;;;1.08;;
70953;SDS011;58618;47.490;8.736;2022-11-20T08:31:58;2.40;;;1.13;;
70953;SDS011;58618;47.490;8.736;2022-11-20T08:34:47;1.52;;;1.10;;
70953;SDS011;58618;47.490;8.736;2022-11-20T08:37:36;1.38;;;1.08;;
70953;SDS011;58618;47.490;8.736;2022-11-20T08:40:27;1.75;;;1.15;;
70953;SDS011;58618;47.490;8.736;2022-11-20T08:43:14;1.60;;;1.00;;
70953;SDS011;58618;47.490;8.736;2022-11-20T08:46:02;1.43;;;1.00;;
70953;SDS011;58618;47.490;8.736;2022-11-20T08:48:49;1.90;;;1.10;;
70953;SDS011;58618;47.490;8.736;2022-11-20T08:51:38;1.52;;;0.80;;
70953;SDS011;58618;47.490;8.736;2022-11-20T08:54:25;1.30;;;0.90;;
70953;SDS011;58618;47.490;8.736;2022-11-20T08:57:13;1.00;;;0.90;;
70953;SDS011;58618;47.490;8.736;2022-11-20T09:00:00;2.93;;;1.03;;
70953;SDS011;58618;47.490;8.736;2022-11-20T09:02:48;1.48;;;1.00;;
70953;SDS011;58618;47.490;8.736;2022-11-20T09:05:36;1.30;;;0.90;;
70953;SDS011;58618;47.490;8.736;2022-11-20T09:08:24;1.75;;;0.80;;
70953;SDS011;58618;47.490;8.736;2022-11-20T09:11:12;1.17;;;0.98;;
70953;SDS011;58618;47.490;8.736;2022-11-20T09:13:59;1.97;;;1.20;;
70953;SDS011;58618;47.490;8.736;2022-11-20T09:16:48;1.60;;;1.02;;
70953;SDS011;58618;47.490;8.736;2022-11-20T09:19:36;1.38;;;0.60;;
70953;SDS011;58618;47.490;8.736;2022-11-20T09:22:23;0.80;;;0.63;;
70953;SDS011;58618;47.490;8.736;2022-11-20T09:25:12;1.00;;;0.60;;
70953;SDS011;58618;47.490;8.736;2022-11-20T09:28:00;1.20;;;0.90;;
70953;SDS011;58618;47.490;8.736;2022-11-20T09:30:47;1.00;;;0.70;;
70953;SDS011;58618;47.490;8.736;2022-11-20T09:33:35;1.45;;;0.90;;
70953;SDS011;58618;47.490;8.736;2022-11-20T09:36:22;1.45;;;0.88;;
70953;SDS011;58618;47.490;8.736;2022-11-20T09:39:10;0.93;;;0.80;;
70953;SDS011;58618;47.490;8.736;2022-11-20T09:42:08;0.70;;;0.60;;
70953;SDS011;58618;47.490;8.736;2022-11-20T09:45:15;0.73;;;0.70;;
70953;SDS011;58618;47.490;8.736;2022-11-20T09:48:14;2.63;;;0.88;;
70953;SDS011;58618;47.490;8.736;2022-11-20T09:51:14;1.63;;;1.02;;
70953;SDS011;58618;47.490;8.736;2022-11-20T09:54:15;0.90;;;0.70;;
70953;SDS011;58618;47.490;8.736;2022-11-20T09:57:05;1.10;;;0.90;;
70953;SDS011;58618;47.490;8.736;2022-11-20T09:59:59;0.90;;;0.75;;
70953;SDS011;58618;47.490;8.736;2022-11-20T10:05:58;1.08;;;0.63;;
70953;SDS011;58618;47.490;8.736;2022-11-20T10:08:50;1.15;;;0.90;;
70953;SDS011;58618;47.490;8.736;2022-11-20T10:11:47;0.80;;;0.57;;
70953;SDS011;58618;47.490;8.736;2022-11-20T10:14:44;1.63;;;0.82;;
70953;SDS011;58618;47.490;8.736;2022-11-20T10:21:09;1.67;;;0.80;;
70953;SDS011;58618;47.490;8.736;2022-11-20T10:24:07;1.33;;;0.80;;
70953;SDS011;58618;47.490;8.736;2022-11-20T10:27:15;0.80;;;0.60;;
70953;SDS011;58618;47.490;8.736;2022-11-20T10:30:25;1.15;;;0.60;;
70953;SDS011;58618;47.490;8.736;2022-11-20T10:33:17;0.80;;;0.70;;
70953;SDS011;58618;47.490;8.736;2022-11-20T10:36:08;1.35;;;0.93;;
70953;SDS011;58618;47.490;8.736;2022-11-20T10:39:05;1.20;;;1.00;;
70953;SDS011;58618;47.490;8.736;2022-11-20T10:42:01;1.27;;;0.90;;
70953;SDS011;58618;47.490;8.736;2022-11-20T10:44:52;0.75;;;0.60;;
70953;SDS011;58618;47.490;8.736;2022-11-20T10:47:49;0.80;;;0.80;;
70953;SDS011;58618;47.490;8.736;2022-11-20T10:50:40;1.48;;;0.80;;
70953;SDS011;58618;47.490;8.736;2022-11-20T10:53:44;1.05;;;0.80;;
70953;SDS011;58618;47.490;8.736;2022-11-20T10:56:39;2.87;;;0.80;;
70953;SDS011;58618;47.490;8.736;2022-11-20T10:59:35;1.13;;;0.93;;
70953;SDS011;58618;47.490;8.736;2022-11-20T11:02:31;1.10;;;0.70;;
70953;SDS011;58618;47.490;8.736;2022-11-20T11:05:27;0.90;;;0.70;;
70953;SDS011;58618;47.490;8.736;2022-11-20T11:08:26;1.27;;;0.80;;
70953;SDS011;58618;47.490;8.736;2022-11-20T11:11:18;0.90;;;0.70;;
70953;SDS011;58618;47.490;8.736;2022-11-20T11:14:09;1.77;;;0.90;;
70953;SDS011;58618;47.490;8.736;2022-11-20T11:16:58;1.23;;;0.93;;
70953;SDS011;58618;47.490;8.736;2022-11-20T11:19:56;1.10;;;0.80;;
70953;SDS011;58618;47.490;8.736;2022-11-20T11:22:46;1.25;;;0.77;;
70953;SDS011;58618;47.490;8.736;2022-11-20T11:25:36;1.30;;;0.90;;
70953;SDS011;58618;47.490;8.736;2022-11-20T11:28:24;1.27;;;1.00;;
70953;SDS011;58618;47.490;8.736;2022-11-20T11:31:21;0.80;;;0.70;;
70953;SDS011;58618;47.490;8.736;2022-11-20T11:34:11;1.02;;;0.88;;
70953;SDS011;58618;47.490;8.736;2022-11-20T11:37:00;1.13;;;0.93;;
70953;SDS011;58618;47.490;8.736;2022-11-20T11:39:51;1.53;;;1.10;;
70953;SDS011;58618;47.490;8.736;2022-11-20T11:42:41;1.00;;;0.90;;
70953;SDS011;58618;47.490;8.736;2022-11-20T11:45:30;0.85;;;0.70;;
70953;SDS011;58618;47.490;8.736;2022-11-20T11:48:17;1.15;;;0.70;;
70953;SDS011;58618;47.490;8.736;2022-11-20T11:51:07;0.88;;;0.70;;
70953;SDS011;58618;47.490;8.736;2022-11-20T11:53:55;2.70;;;1.10;;
70953;SDS011;58618;47.490;8.736;2022-11-20T11:56:46;1.77;;;0.98;;
70953;SDS011;58618;47.490;8.736;2022-11-20T11:59:38;1.08;;;0.77;;
70953;SDS011;58618;47.490;8.736;2022-11-20T12:02:49;1.05;;;0.95;;
70953;SDS011;58618;47.490;8.736;2022-11-20T12:05:49;1.08;;;0.90;;
70953;SDS011;58618;47.490;8.736;2022-11-20T12:08:43;1.93;;;1.63;;
70953;SDS011;58618;47.490;8.736;2022-11-20T12:11:37;2.33;;;1.02;;
70953;SDS011;58618;47.490;8.736;2022-11-20T12:14:30;0.90;;;0.77;;
70953;SDS011;58618;47.490;8.736;2022-11-20T12:17:24;1.80;;;1.02;;
70953;SDS011;58618;47.490;8.736;2022-11-20T12:20:11;1.10;;;0.82;;
70953;SDS011;58618;47.490;8.736;2022-11-20T12:23:01;0.83;;;0.77;;
70953;SDS011;58618;47.490;8.736;2022-11-20T12:25:53;1.20;;;0.73;;
70953;SDS011;58618;47.490;8.736;2022-11-20T12:28:48;2.35;;;0.77;;
70953;SDS011;58618;47.490;8.736;2022-11-20T12:31:55;1.52;;;0.65;;
70953;SDS011;58618;47.490;8.736;2022-11-20T12:34:56;1.00;;;0.80;;
70953;SDS011;58618;47.490;8.736;2022-11-20T12:37:53;1.10;;;0.70;;
70953;SDS011;58618;47.490;8.736;2022-11-20T12:40:55;1.38;;;0.90;;
70953;SDS011;58618;47.490;8.736;2022-11-20T12:43:51;0.93;;;0.65;;
70953;SDS011;58618;47.490;8.736;2022-11-20T12:47:09;0.70;;;0.68;;
70953;SDS011;58618;47.490;8.736;2022-11-20T12:50:09;0.70;;;0.63;;
70953;SDS011;58618;47.490;8.736;2022-11-20T12:53:07;0.90;;;0.60;;
70953;SDS011;58618;47.490;8.736;2022-11-20T12:56:17;0.82;;;0.70;;
70953;SDS011;58618;47.490;8.736;2022-11-20T12:59:24;0.90;;;0.75;;
70953;SDS011;58618;47.490;8.736;2022-11-20T13:02:25;0.93;;;0.70;;
70953;SDS011;58618;47.490;8.736;2022-11-20T13:05:19;0.90;;;0.80;;
70953;SDS011;58618;47.490;8.736;2022-11-20T13:08:14;1.40;;;0.80;;
70953;SDS011;58618;47.490;8.736;2022-11-20T13:11:08;2.65;;;0.90;;
70953;SDS011;58618;47.490;8.736;2022-11-20T13:14:11;0.70;;;0.63;;
70953;SDS011;58618;47.490;8.736;2022-11-20T13:17:10;1.38;;;1.00;;
70953;SDS011;58618;47.490;8.736;2022-11-20T13:20:03;1.42;;;0.70;;
70953;SDS011;58618;47.490;8.736;2022-11-20T13:22:56;0.77;;;0.70;;
70953;SDS011;58618;47.490;8.736;2022-11-20T13:25:44;1.58;;;0.80;;
70953;SDS011;58618;47.490;8.736;2022-11-20T13:28:33;0.80;;;0.70;;
70953;SDS011;58618;47.490;8.736;2022-11-20T13:31:25;1.45;;;0.80;;
70953;SDS011;58618;47.490;8.736;2022-11-20T13:34:22;0.70;;;0.63;;
70953;SDS011;58618;47.490;8.736;2022-11-20T13:37:24;0.80;;;0.70;;
70953;SDS011;58618;47.490;8.736;2022-11-20T13:40:19;1.73;;;0.90;;
70953;SDS011;58618;47.490;8.736;2022-11-20T13:43:14;1.48;;;1.00;;
70953;SDS011;58618;47.490;8.736;2022-11-20T13:46:07;1.15;;;0.70;;
70953;SDS011;58618;47.490;8.736;2022-11-20T13:48:55;0.93;;;0.80;;
70953;SDS011;58618;47.490;8.736;2022-11-20T13:51:43;1.17;;;0.70;;
70953;SDS011;58618;47.490;8.736;2022-11-20T13:58:10;0.90;;;0.70;;
70953;SDS011;58618;47.490;8.736;2022-11-20T14:01:08;1.17;;;0.70;;
70953;SDS011;58618;47.490;8.736;2022-11-20T14:03:57;0.68;;;0.57;;
70953;SDS011;58618;47.490;8.736;2022-11-20T14:06:45;1.07;;;0.80;;
70953;SDS011;58618;47.490;8.736;2022-11-20T14:09:35;0.82;;;0.70;;
70953;SDS011;58618;47.490;8.736;2022-11-20T14:12:27;1.02;;;0.70;;
70953;SDS011;58618;47.490;8.736;2022-11-20T14:15:24;1.05;;;0.75;;
70953;SDS011;58618;47.490;8.736;2022-11-20T14:18:14;0.75;;;0.60;;
70953;SDS011;58618;47.490;8.736;2022-11-20T14:21:08;1.30;;;0.83;;
70953;SDS011;58618;47.490;8.736;2022-11-20T14:24:05;0.73;;;0.65;;
70953;SDS011;58618;47.490;8.736;2022-11-20T14:26:53;1.13;;;0.55;;
70953;SDS011;58618;47.490;8.736;2022-11-20T14:29:42;0.90;;;0.80;;
70953;SDS011;58618;47.490;8.736;2022-11-20T14:32:31;0.77;;;0.60;;
70953;SDS011;58618;47.490;8.736;2022-11-20T14:35:23;0.90;;;0.60;;
70953;SDS011;58618;47.490;8.736;2022-11-20T14:38:13;0.90;;;0.60;;
70953;SDS011;58618;47.490;8.736;2022-11-20T14:41:06;0.82;;;0.60;;
70953;SDS011;58618;47.490;8.736;2022-11-20T14:43:54;0.75;;;0.60;;
70953;SDS011;58618;47.490;8.736;2022-11-20T14:46:45;1.20;;;0.63;;
70953;SDS011;58618;47.490;8.736;2022-11-20T14:49:33;0.90;;;0.70;;
70953;SDS011;58618;47.490;8.736;2022-11-20T14:52:21;0.52;;;0.52;;
70953;SDS011;58618;47.490;8.736;2022-11-20T14:55:13;0.68;;;0.57;;
70953;SDS011;58618;47.490;8.736;2022-11-20T14:58:01;0.60;;;0.60;;
70953;SDS011;58618;47.490;8.736;2022-11-20T15:00:53;1.55;;;0.63;;
70953;SDS011;58618;47.490;8.736;2022-11-20T15:03:43;2.23;;;0.90;;
70953;SDS011;58618;47.490;8.736;2022-11-20T15:06:30;0.65;;;0.60;;
70953;SDS011;58618;47.490;8.736;2022-11-20T15:09:18;0.68;;;0.68;;
70953;SDS011;58618;47.490;8.736;2022-11-20T15:12:05;1.08;;;0.80;;
70953;SDS011;58618;47.490;8.736;2022-11-20T15:14:53;0.93;;;0.60;;
70953;SDS011;58618;47.490;8.736;2022-11-20T15:17:40;0.50;;;0.50;;
70953;SDS011;58618;47.490;8.736;2022-11-20T15:20:29;0.88;;;0.50;;
70953;SDS011;58618;47.490;8.736;2022-11-20T15:23:19;1.33;;;0.50;;
70953;SDS011;58618;47.490;8.736;2022-11-20T15:26:06;0.60;;;0.60;;
70953;SDS011;58618;47.490;8.736;2022-11-20T15:28:55;1.13;;;0.65;;
70953;SDS011;58618;47.490;8.736;2022-11-20T15:31:42;0.77;;;0.60;;
70953;SDS011;58618;47.490;8.736;2022-11-20T15:34:30;3.53;;;0.70;;
70953;SDS011;58618;47.490;8.736;2022-11-20T15:37:19;0.80;;;0.60;;
70953;SDS011;58618;47.490;8.736;2022-11-20T15:40:07;0.73;;;0.60;;
70953;SDS011;58618;47.490;8.736;2022-11-20T15:42:55;1.05;;;0.65;;
70953;SDS011;58618;47.490;8.736;2022-11-20T15:45:53;2.60;;;0.70;;
70953;SDS011;58618;47.490;8.736;2022-11-20T15:48:43;0.95;;;0.70;;
70953;SDS011;58618;47.490;8.736;2022-11-20T15:51:32;0.80;;;0.60;;
70953;SDS011;58618;47.490;8.736;2022-11-20T15:54:23;0.60;;;0.60;;
70953;SDS011;58618;47.490;8.736;2022-11-20T15:57:10;1.48;;;0.80;;
70953;SDS011;58618;47.490;8.736;2022-11-20T15:59:58;0.60;;;0.53;;
70953;SDS011;58618;47.490;8.736;2022-11-20T16:02:46;0.82;;;0.77;;
70953;SDS011;58618;47.490;8.736;2022-11-20T16:05:33;0.60;;;0.50;;
70953;SDS011;58618;47.490;8.736;2022-11-20T16:08:21;0.60;;;0.60;;
70953;SDS011;58618;47.490;8.736;2022-11-20T16:11:11;0.80;;;0.50;;
70953;SDS011;58618;47.490;8.736;2022-11-20T16:14:00;0.70;;;0.70;;
70953;SDS011;58618;47.490;8.736;2022-11-20T16:17:17;0.65;;;0.55;;
70953;SDS011;58618;47.490;8.736;2022-11-20T16:20:25;1.10;;;0.80;;
70953;SDS011;58618;47.490;8.736;2022-11-20T16:23:12;0.98;;;0.80;;
70953;SDS011;58618;47.490;8.736;2022-11-20T16:26:08;1.23;;;0.90;;
70953;SDS011;58618;47.490;8.736;2022-11-20T16:28:59;0.70;;;0.60;;
70953;SDS011;58618;47.490;8.736;2022-11-20T16:31:48;2.67;;;0.80;;
70953;SDS011;58618;47.490;8.736;2022-11-20T16:34:35;0.73;;;0.70;;
70953;SDS011;58618;47.490;8.736;2022-11-20T16:37:22;0.65;;;0.50;;
70953;SDS011;58618;47.490;8.736;2022-11-20T16:40:10;0.80;;;0.60;;
70953;SDS011;58618;47.490;8.736;2022-11-20T16:42:59;0.50;;;0.50;;
70953;SDS011;58618;47.490;8.736;2022-11-20T16:45:56;0.60;;;0.52;;
70953;SDS011;58618;47.490;8.736;2022-11-20T16:48:44;1.00;;;0.75;;
70953;SDS011;58618;47.490;8.736;2022-11-20T16:51:33;1.27;;;0.90;;
70953;SDS011;58618;47.490;8.736;2022-11-20T16:54:21;0.80;;;0.70;;
70953;SDS011;58618;47.490;8.736;2022-11-20T16:57:09;0.57;;;0.43;;
70953;SDS011;58618;47.490;8.736;2022-11-20T16:59:56;1.33;;;0.85;;
70953;SDS011;58618;47.490;8.736;2022-11-20T17:02:45;0.77;;;0.60;;
70953;SDS011;58618;47.490;8.736;2022-11-20T17:05:32;1.20;;;0.70;;
70953;SDS011;58618;47.490;8.736;2022-11-20T17:08:20;0.60;;;0.60;;
70953;SDS011;58618;47.490;8.736;2022-11-20T17:11:09;0.97;;;0.60;;
70953;SDS011;58618;47.490;8.736;2022-11-20T17:13:58;0.65;;;0.60;;
70953;SDS011;58618;47.490;8.736;2022-11-20T17:16:48;1.10;;;0.70;;